Flournoy, California
Current Conditions -  °F | °C
As of 10:54 PM on Tuesday 21 Oct 2014 (Local Time) from KRBL Reporting Station
Clear Clear  
Wind Chill: 56°   Ceiling: Unl
Heat Index: 56°   Visibility: 10mi
Dew Point: 43°   Wind: 7mph
Humidity: 62%   Direction: 320°NW
Pressure: 30.04"   Gusts: NA
Location:  39.9°N, 122.51°W
Report Text: KRBL 220554Z AUTO 32006KT 10SM CLR 13/06 A3004 RMK AO2 SLP171 T01330061 10206 20117 53004
Loading
Personal Weather Stations






























Interactive Weather Map
Tropical Storm Tracking
New forecast layout! Learn more

10-Day Weather Forecast

Advertisements
Track Severe Weather on mobile